Flight Track Log - Related Links

Times and Time Zones

All times are in EDT time to prevent confusion due to time zone crossing. See the N779NC flight status page for this flight to view local times or setup timezone preferences in your user account.

Time Position Orientation Groundspeed Altitude Reporting Facility
EDT Latitude Longitude Course Direction KTS MPH feet Rate Location/Type
Mon 07:51:16 PM 33.8619 -81.1519 252° West 228 262 4,900  Level Jacksonville Center
Mon 07:52:00 PM 33.8140 -81.3046 261° West  Level FlightAware Approximate
Mon 07:52:16 PM 33.8486 -81.2422 260° West 251 289 8,200  Level Jacksonville Center
Mon 07:53:00 PM 33.8023 -81.3984 261° West  Level FlightAware Approximate
Mon 07:54:00 PM 33.7876 -81.4915 259° West  Level FlightAware Approximate
Mon 07:54:40 PM 33.8053 -81.4814 258° West 310 357 14,000  Level Atlanta Center
Mon 07:55:00 PM 33.7720 -81.5845 259° West  Level FlightAware Approximate
Mon 07:55:40 PM 33.7928 -81.5942 262° West 333 383 16,300  Level Atlanta Center
Mon 07:56:40 PM 33.7764 -81.7097 260° West 350 403 18,300 2,100 Climbing Atlanta Center
Mon 07:57:40 PM 33.7533 -81.8275 257° West 356 410 20,500 1,750 Climbing Atlanta Center
Mon 07:58:40 PM 33.7328 -81.9506 259° West 367 422 21,800 750 Climbing Atlanta Center
Mon 07:59:40 PM 33.7181 -82.0783 262° West 381 438 22,000 100 Climbing Atlanta Center
Mon 08:00:40 PM 33.6969 -82.2011 258° West 388 447 22,000  Level Atlanta Center
Mon 08:01:40 PM 33.6442 -82.3069 239° Southwest 377 434 22,000 -850 Level Atlanta Center
Mon 08:02:40 PM 33.5939 -82.4303 244° Southwest 372 428 20,300 -950 Descending Atlanta Center
Mon 08:03:40 PM 33.5367 -82.5436 239° Southwest 393 452 20,100 -150 Descending Atlanta Center
Mon 08:04:40 PM 33.4903 -82.6714 247° West 404 465 20,000 -50 Descending Atlanta Center
Mon 08:05:40 PM 33.4475 -82.7839 246° West 399 459 20,000  Level Atlanta Center
Mon 08:06:40 PM 33.3881 -82.8944 237° Southwest 391 450 20,000  Level Atlanta Center
Mon 08:07:40 PM 33.3350 -83.0069 241° Southwest 397 457 20,000  Level Atlanta Center
Mon 08:08:40 PM 33.2858 -83.1269 244° Southwest 397 457 20,000  Level Atlanta Center
Mon 08:09:40 PM 33.2406 -83.2442 245° Southwest 387 445 20,000 -900 Level Atlanta Center
Mon 08:10:40 PM 33.1994 -83.3386 243° Southwest 379 436 18,200 -2,350 Descending Atlanta Center
Mon 08:11:40 PM 33.1500 -83.4408 240° Southwest 366 421 15,300 -2,700 Descending Atlanta Center
Mon 08:12:40 PM 33.1589 -83.5600 275° West 345 397 12,800 -1,959 Descending Atlanta Center
Mon 08:13:18 PM 33.1667 -83.6333 277° West 335 386 12,100 -429 Descending Atlanta TRACON
Mon 08:14:18 PM 33.2000 -83.7333 292° West 303 349 12,100 -400 Level Atlanta TRACON
Mon 08:15:18 PM 33.2500 -83.8167 306° West 297 342 11,300 -1,400 Descending Atlanta TRACON
Mon 08:16:18 PM 33.3000 -83.9000 306° West 305 351 9,300 -1,550 Descending Atlanta TRACON
Mon 08:17:18 PM 33.3500 -83.9667 312° West 269 310 8,200 -1,300 Descending Atlanta TRACON
Mon 08:18:18 PM 33.4000 -84.0167 320° Northwest 265 305 6,700 -1,333 Descending Atlanta TRACON
Mon 08:19:24 PM 33.4667 -84.0667 328° Northwest 258 297 5,400 -1,095 Descending Atlanta TRACON
Mon 08:20:24 PM 33.5333 -84.1000 337° Northwest 236 272 4,400 -700 Descending Atlanta TRACON
Mon 08:21:24 PM 33.5833 -84.1333 331° Northwest 234 269 4,000 -150 Descending Atlanta TRACON
Mon 08:22:24 PM 33.6000 -84.2000 287° West 185 213 4,100 -250 Climbing Atlanta TRACON
Mon 08:23:24 PM 33.6333 -84.2500 309° West 190 219 3,500 -600 Descending Atlanta TRACON

Login

Don't have an account? Register now (free) for customized features, flight alerts, and more!